createdAt,value
2023-03-03T00:01:11.717Z,99120.19
2023-03-03T00:06:14.844Z,99116.95
2023-03-03T00:11:17.668Z,99117.14
2023-03-03T00:16:31.742Z,99117.90
2023-03-03T00:21:41.171Z,99115.88
2023-03-03T00:26:47.269Z,99117.31
2023-03-03T00:31:49.247Z,99113.42
2023-03-03T00:36:54.993Z,99109.83
2023-03-03T00:42:18.386Z,99109.08
2023-03-03T00:47:28.198Z,99107.84
2023-03-03T00:52:38.399Z,99108.41
2023-03-03T00:57:40.073Z,99106.38
2023-03-03T01:02:42.102Z,99107.75
2023-03-03T01:07:43.864Z,99106.85
2023-03-03T01:12:45.852Z,99105.81
2023-03-03T01:17:47.633Z,99100.64
2023-03-03T01:22:49.558Z,99097.52
2023-03-03T01:27:51.210Z,99094.39
2023-03-03T01:32:53.164Z,99083.08
2023-03-03T01:37:54.848Z,99079.48
2023-03-03T01:42:59.947Z,99072.89
2023-03-03T01:48:04.634Z,99072.10
2023-03-03T01:53:13.520Z,99071.38
2023-03-03T01:58:34.142Z,99069.55
2023-03-03T02:03:35.905Z,99063.27
2023-03-03T02:08:45.577Z,99070.59
2023-03-03T02:13:47.493Z,99071.15
2023-03-03T02:18:49.407Z,99073.79
2023-03-03T02:24:18.131Z,99086.98
2023-03-03T02:29:21.148Z,99091.41
2023-03-03T02:34:23.307Z,99091.75
2023-03-03T02:39:26.906Z,99068.65
2023-03-03T02:44:31.170Z,99096.09
2023-03-03T02:49:35.911Z,99098.30
2023-03-03T02:54:38.572Z,99090.27
2023-03-03T02:59:40.329Z,99085.70
2023-03-03T03:04:45.294Z,99080.85
2023-03-03T03:09:50.577Z,99078.44
2023-03-03T03:14:52.486Z,99066.86
2023-03-03T03:19:54.586Z,99059.20
2023-03-03T03:24:56.969Z,99059.35
2023-03-03T03:29:58.803Z,99063.81
2023-03-03T03:35:02.541Z,99060.75
2023-03-03T03:40:05.672Z,99015.17
2023-03-03T03:45:08.162Z,99057.91
2023-03-03T03:50:11.092Z,99051.36
2023-03-03T03:55:13.208Z,99052.95
2023-03-03T04:00:15.653Z,99055.38
2023-03-03T04:05:20.504Z,99063.80
2023-03-03T04:10:22.568Z,99066.60
2023-03-03T04:15:24.836Z,99078.78
2023-03-03T04:20:26.812Z,99081.13
2023-03-03T04:25:29.453Z,99078.09
2023-03-03T04:30:31.351Z,99082.79
2023-03-03T04:35:33.643Z,99069.06
2023-03-03T04:40:35.508Z,99078.24
2023-03-03T04:45:37.829Z,99082.02
2023-03-03T04:50:39.979Z,99079.15
2023-03-03T04:55:42.115Z,99074.55
2023-03-03T05:00:44.239Z,99070.48
2023-03-03T05:05:47.459Z,99072.87
2023-03-03T05:10:53.747Z,99082.01
2023-03-03T05:15:56.608Z,99096.27
2023-03-03T05:20:58.600Z,99093.90
2023-03-03T05:26:00.310Z,99111.09
2023-03-03T05:31:02.068Z,99110.94
2023-03-03T05:36:04.017Z,99116.63
2023-03-03T05:41:05.645Z,99126.17
2023-03-03T05:46:08.225Z,99130.46
2023-03-03T05:51:09.949Z,99138.16
2023-03-03T05:56:11.642Z,99145.70
2023-03-03T06:01:13.337Z,99155.99
2023-03-03T06:06:17.003Z,99159.99
2023-03-03T06:11:19.411Z,99136.88
2023-03-03T06:16:21.706Z,99173.71
2023-03-03T06:21:23.499Z,99183.68
2023-03-03T06:26:25.291Z,99176.29
2023-03-03T06:31:32.180Z,99165.20
2023-03-03T06:36:33.997Z,99183.52
2023-03-03T06:41:43.890Z,99179.14
2023-03-03T06:46:45.567Z,99197.30
2023-03-03T06:51:47.417Z,99191.85
2023-03-03T06:56:50.298Z,99195.73
2023-03-03T07:01:52.540Z,99186.98
2023-03-03T07:06:55.907Z,99188.34
2023-03-03T07:12:12.627Z,99198.95
2023-03-03T07:17:21.223Z,99186.70
2023-03-03T07:22:27.764Z,99178.33
2023-03-03T07:27:31.544Z,99182.59
2023-03-03T07:32:44.217Z,99204.09
2023-03-03T07:37:46.132Z,99214.52
2023-03-03T07:42:48.172Z,99213.20
2023-03-03T07:48:09.293Z,99198.12
2023-03-03T07:53:30.020Z,99197.44
2023-03-03T07:58:39.186Z,99221.71
2023-03-03T08:03:42.522Z,99224.32
2023-03-03T08:08:45.652Z,99211.54
2023-03-03T08:13:47.560Z,99202.70
2023-03-03T08:18:51.536Z,99202.39
2023-03-03T08:23:54.048Z,99208.98
2023-03-03T08:28:55.867Z,99201.75
2023-03-03T08:33:57.641Z,99204.10
2023-03-03T08:38:59.345Z,99218.05
2023-03-03T08:44:01.190Z,99226.77
2023-03-03T08:49:03.289Z,99229.25
2023-03-03T08:54:05.278Z,99225.29
2023-03-03T08:59:07.005Z,99214.30
2023-03-03T09:04:09.120Z,99206.46
2023-03-03T09:09:11.105Z,99208.08
2023-03-03T09:14:18.713Z,99208.82
2023-03-03T09:19:32.631Z,99208.86
2023-03-03T09:24:36.512Z,99211.16
2023-03-03T09:29:38.301Z,99215.45
2023-03-03T09:34:42.302Z,99194.13
2023-03-03T09:39:46.268Z,99191.29
2023-03-03T09:45:22.219Z,99190.36
2023-03-03T09:50:45.591Z,99198.73
2023-03-03T09:56:12.529Z,99204.12
2023-03-03T10:01:32.651Z,99218.77
2023-03-03T10:06:45.301Z,99225.36
2023-03-03T10:12:25.394Z,99214.95
2023-03-03T10:17:41.752Z,99212.20
2023-03-03T10:22:52.831Z,99225.47
2023-03-03T10:28:13.326Z,99235.60
2023-03-03T10:33:18.120Z,99242.18
2023-03-03T10:38:55.657Z,99235.50
2023-03-03T10:44:29.473Z,99232.85
2023-03-03T10:49:59.973Z,99234.96
2023-03-03T10:55:21.896Z,99237.77
2023-03-03T11:00:36.971Z,99237.77
2023-03-03T11:05:58.225Z,99234.55
2023-03-03T11:11:12.239Z,99233.35
2023-03-03T11:16:38.318Z,99227.22
2023-03-03T11:22:07.663Z,99219.94
2023-03-03T11:27:37.916Z,99222.56
2023-03-03T11:33:04.711Z,99223.63
2023-03-03T11:38:30.809Z,99223.42
2023-03-03T11:43:45.443Z,99215.65
2023-03-03T11:49:15.562Z,99216.41
2023-03-03T11:54:34.326Z,99213.92
2023-03-03T11:59:51.852Z,99216.02
2023-03-03T12:05:05.302Z,99222.00
2023-03-03T12:10:19.203Z,99214.84
2023-03-03T12:15:37.121Z,99210.29
2023-03-03T12:21:00.518Z,99209.27
2023-03-03T12:26:15.690Z,99203.04
2023-03-03T12:31:20.808Z,99201.11
2023-03-03T12:36:40.670Z,99196.98
2023-03-03T12:41:59.001Z,99195.73
2023-03-03T12:47:10.397Z,99185.67
2023-03-03T12:52:57.637Z,99179.67
2023-03-03T12:58:24.286Z,99178.21
2023-03-03T13:03:56.184Z,99182.48
2023-03-03T13:09:03.831Z,99175.27
2023-03-03T13:14:42.420Z,99177.19
2023-03-03T13:20:00.935Z,99177.05
2023-03-03T13:25:30.208Z,99180.64
2023-03-03T13:30:35.844Z,99181.75
2023-03-03T13:36:14.031Z,99178.02
2023-03-03T13:41:43.684Z,99177.69
2023-03-03T13:47:06.807Z,99173.02
2023-03-03T13:52:16.119Z,99174.05
2023-03-03T13:57:36.493Z,99171.63
2023-03-03T14:03:18.178Z,99169.27
2023-03-03T14:08:44.005Z,99163.54
2023-03-03T14:14:10.561Z,99136.35
2023-03-03T14:19:18.285Z,99167.90
2023-03-03T14:24:23.186Z,99165.61
2023-03-03T14:29:27.658Z,99162.09
2023-03-03T14:34:57.580Z,99154.02
2023-03-03T14:40:16.168Z,99149.36
2023-03-03T14:45:35.816Z,99150.60
2023-03-03T14:50:40.364Z,99148.98
2023-03-03T14:55:45.367Z,99144.84
2023-03-03T15:00:47.387Z,99146.15
2023-03-03T15:05:51.415Z,99158.16
2023-03-03T15:10:53.172Z,99159.61
2023-03-03T15:16:16.762Z,99151.82
2023-03-03T15:21:27.204Z,99143.55
2023-03-03T15:26:50.286Z,99144.89
2023-03-03T15:31:58.038Z,99141.16
2023-03-03T15:37:14.514Z,99144.95
2023-03-03T15:42:27.148Z,99142.36
2023-03-03T15:47:53.665Z,99142.36
2023-03-03T15:53:11.664Z,99142.21
2023-03-03T15:58:25.178Z,99138.68
2023-03-03T16:03:31.805Z,99139.20
2023-03-03T16:08:51.614Z,99139.60
2023-03-03T16:14:24.142Z,99145.38
2023-03-03T16:19:39.747Z,99147.14
2023-03-03T16:25:06.228Z,99145.76
2023-03-03T16:30:26.386Z,99149.04
2023-03-03T16:35:42.980Z,99157.34
2023-03-03T16:41:00.215Z,99155.97
2023-03-03T16:46:21.379Z,99152.08
2023-03-03T16:51:56.918Z,99160.75
2023-03-03T16:57:14.416Z,99155.30
2023-03-03T17:02:41.134Z,99159.63
2023-03-03T17:08:14.891Z,99158.61
2023-03-03T17:13:48.395Z,99160.91
2023-03-03T17:19:23.998Z,99166.06
2023-03-03T17:25:27.260Z,99169.61
2023-03-03T17:30:50.236Z,99180.98
2023-03-03T17:36:10.594Z,99185.02
2023-03-03T17:41:15.093Z,99178.19
2023-03-03T17:46:51.586Z,99181.00
2023-03-03T17:52:21.358Z,99183.52
2023-03-03T17:57:46.366Z,99182.83
2023-03-03T18:03:22.839Z,99181.79
2023-03-03T18:08:29.420Z,99180.67
2023-03-03T18:13:48.130Z,99174.24
2023-03-03T18:19:08.413Z,99173.90
2023-03-03T18:24:25.324Z,99175.85
2023-03-03T18:29:28.572Z,99182.33
2023-03-03T18:34:40.849Z,99185.88
2023-03-03T18:39:48.593Z,99182.14
2023-03-03T18:44:50.334Z,99173.56
2023-03-03T18:50:31.923Z,99166.05
2023-03-03T18:55:42.739Z,99168.56
2023-03-03T19:00:52.385Z,99159.58
2023-03-03T19:05:57.657Z,99158.27
2023-03-03T19:11:01.525Z,99156.61
2023-03-03T19:16:08.142Z,99149.77
2023-03-03T19:21:12.852Z,99154.11
2023-03-03T19:26:20.226Z,99161.11
2023-03-03T19:31:39.373Z,99160.79
2023-03-03T19:37:13.675Z,99163.01
2023-03-03T19:42:21.568Z,99161.25
2023-03-03T19:47:56.236Z,99156.44
2023-03-03T19:53:13.938Z,99159.55
2023-03-03T19:58:29.806Z,99163.89
2023-03-03T20:03:58.414Z,99163.02
2023-03-03T20:09:31.526Z,99157.80
2023-03-03T20:14:44.431Z,99150.83
2023-03-03T20:19:56.476Z,99159.12
2023-03-03T20:25:23.862Z,99157.63
2023-03-03T20:31:09.988Z,99159.10
2023-03-03T20:36:26.605Z,99160.47
2023-03-03T20:41:40.459Z,99163.85
2023-03-03T20:47:10.882Z,99166.14
2023-03-03T20:52:45.774Z,99162.42
2023-03-03T20:58:15.839Z,99154.25
2023-03-03T21:03:29.858Z,99142.05
2023-03-03T21:08:56.947Z,99134.31
2023-03-03T21:14:01.280Z,99126.29
2023-03-03T21:19:10.034Z,99125.88
2023-03-03T21:24:15.261Z,99130.45
2023-03-03T21:29:24.024Z,99118.42
2023-03-03T21:34:31.889Z,99109.74
2023-03-03T21:39:41.964Z,99100.95
2023-03-03T21:44:50.937Z,99107.75
2023-03-03T21:49:53.403Z,99105.70
2023-03-03T21:54:55.218Z,99094.41
2023-03-03T21:59:57.138Z,99091.41
2023-03-03T22:04:59.536Z,99080.42
2023-03-03T22:10:03.674Z,99077.33
2023-03-03T22:15:08.534Z,99068.24
2023-03-03T22:20:12.022Z,99060.41
2023-03-03T22:25:13.750Z,99057.23
2023-03-03T22:30:16.193Z,99045.98
2023-03-03T22:35:18.972Z,99036.93
2023-03-03T22:40:20.733Z,99035.02
2023-03-03T22:45:52.748Z,99033.34
2023-03-03T22:51:24.214Z,99027.52
2023-03-03T22:56:29.286Z,99023.17
2023-03-03T23:01:31.210Z,99018.04
2023-03-03T23:06:32.945Z,99000.39
2023-03-03T23:11:34.709Z,99005.39
2023-03-03T23:16:36.457Z,99008.11
2023-03-03T23:21:38.195Z,99002.39
2023-03-03T23:26:39.867Z,98994.53
2023-03-03T23:31:41.751Z,98981.48
2023-03-03T23:36:43.465Z,98984.64
2023-03-03T23:41:45.323Z,98984.24
2023-03-03T23:46:47.105Z,98985.95
2023-03-03T23:51:48.912Z,98983.27
2023-03-03T23:56:50.873Z,98976.60
